Date,TemperatureHighF,TemperatureAvgF,TemperatureLowF,DewpointHighF,DewpointAvgF,DewpointLowF,HumidityHigh,HumidityAvg,HumidityLow,PressureMaxIn,PressureMinIn,WindSpeedMaxMPH,WindSpeedAvgMPH,GustSpeedMaxMPH,PrecipitationSumIn
2013-1-1,56,45,36,38,35,33,89,69,48,0.00,40.00,12,6,20,0.00
2013-1-2,62,48,38,34,32,30,76,56,31,0.00,40.00,9,4,14,0.00
2013-1-3,62,47,38,46,36,29,92,69,38,0.00,40.00,8,3,11,0.00
2013-1-4,63,50,44,49,40,31,95,71,30,0.00,40.00,11,5,17,0.00
2013-1-5,56,48,42,48,44,41,97,87,58,0.00,40.00,9,3,15,0.37
2013-1-6,51,46,40,47,44,38,98,91,76,0.00,40.00,10,5,15,0.69
2013-1-7,55,45,37,46,42,36,98,89,65,0.00,40.00,6,2,9,0.01
2013-1-8,64,52,42,46,44,41,96,74,49,0.00,40.00,9,5,14,0.00
2013-1-9,54,50,44,49,44,39,92,81,70,0.00,40.00,16,6,22,0.00
2013-1-10,51,44,37,40,36,33,95,75,50,0.00,40.00,18,7,26,0.01
2013-1-11,51,41,31,42,35,30,96,80,52,0.00,40.00,17,4,22,0.00
2013-1-12,51,43,35,39,33,24,95,71,44,0.00,40.00,8,3,12,0.00
2013-1-13,50,41,33,34,25,16,71,55,31,0.00,40.00,10,4,14,0.00
2013-1-14,52,40,31,27,20,14,69,47,27,0.00,40.00,9,5,15,0.00
2013-1-15,56,42,31,34,26,22,74,54,28,0.00,40.00,9,3,13,0.00
2013-1-16,63,48,39,41,30,27,71,52,29,0.00,40.00,11,4,18,0.00
2013-1-17,68,56,47,36,32,28,53,41,30,0.00,40.00,15,9,23,0.00
2013-1-18,72,56,47,41,35,30,61,46,24,0.00,40.00,9,3,13,0.00
2013-1-19,72,56,48,46,37,31,69,49,30,0.00,40.00,10,4,17,0.00
2013-1-20,70,58,47,37,31,-100,60,40,28,0.00,40.00,11,6,18,0.00
2013-1-21,73,58,45,37,32,26,55,40,20,0.00,40.00,11,5,17,0.00
2013-1-22,68,56,48,38,32,26,62,42,20,0.00,40.00,9,4,13,0.00
2013-1-23,60,53,47,49,40,30,91,62,36,0.00,40.00,8,3,13,0.00
2013-1-24,57,54,50,53,51,47,96,88,77,0.00,40.00,9,4,13,0.01
2013-1-25,67,57,52,57,53,50,96,87,70,0.00,40.00,11,4,17,0.00
2013-1-26,56,52,47,54,48,40,98,86,68,0.00,40.00,18,6,24,0.00
2013-1-27,53,46,37,43,39,36,96,79,60,0.00,40.00,10,3,13,0.01
2013-1-28,55,45,34,46,40,33,97,83,63,0.00,40.00,15,4,20,0.00
2013-1-29,56,45,36,46,41,35,98,86,66,0.00,40.00,6,3,9,0.00
2013-1-30,60,49,40,48,43,38,95,82,59,0.00,40.00,6,3,10,0.01
2013-1-31,69,54,43,47,44,40,88,70,39,0.00,40.00,10,4,17,0.00
2013-2-1,69,52,45,50,45,41,98,80,42,0.00,40.00,11,4,16,0.00
2013-2-2,54,48,44,50,47,43,100,95,84,0.00,40.00,6,2,9,0.00
2013-2-3,55,49,42,48,46,40,99,90,75,0.00,40.00,10,3,15,0.01
2013-2-4,55,46,40,50,44,39,99,94,83,0.00,40.00,12,3,15,0.01
2013-2-5,55,48,43,47,45,40,98,90,74,0.00,40.00,5,3,9,0.00
2013-2-6,57,46,38,47,42,37,99,88,62,0.00,40.00,8,3,12,0.00
2013-2-7,54,47,39,47,42,37,95,83,66,0.00,40.00,14,6,21,0.09
2013-2-8,52,45,39,43,41,36,97,86,63,0.00,40.00,16,5,21,0.19
2013-2-9,53,42,32,44,38,32,99,86,60,0.00,40.00,9,3,12,0.01
2013-2-10,54,43,34,45,38,32,97,85,54,0.00,40.00,8,3,13,0.00
2013-2-11,58,46,35,43,39,35,98,80,42,0.00,40.00,10,4,13,0.01
2013-2-12,57,45,35,47,40,33,97,85,53,0.00,40.00,9,3,12,0.00
2013-2-13,54,45,36,49,43,36,99,92,75,0.00,40.00,9,3,13,0.01
2013-2-14,69,51,39,49,43,38,99,78,34,0.00,40.00,11,4,17,0.00
2013-2-15,78,60,49,47,40,32,68,52,19,0.00,40.00,7,4,11,0.00
2013-2-16,76,58,48,51,42,35,98,60,24,0.00,40.00,8,4,12,0.00
2013-2-17,54,49,44,48,46,42,99,91,76,0.00,40.00,7,4,11,0.00
2013-2-18,51,47,42,46,43,40,98,85,70,0.00,40.00,11,6,16,0.00
2013-2-19,49,45,38,44,40,32,92,82,73,0.00,40.00,13,6,23,0.29
2013-2-20,55,43,33,45,38,32,96,83,59,0.00,40.00,14,5,18,0.00
2013-2-21,57,46,37,45,40,36,98,83,57,0.00,40.00,13,4,19,0.01
2013-2-22,57,46,36,47,41,35,97,84,57,0.00,40.00,9,4,14,0.00
2013-2-23,58,50,43,46,42,33,96,76,39,0.00,40.00,15,6,21,0.00
2013-2-24,60,48,37,43,35,26,83,64,30,0.00,40.00,12,4,17,0.00
2013-2-25,58,46,35,49,40,32,95,81,43,0.00,40.00,10,4,14,0.00
2013-2-26,61,48,36,47,40,35,98,78,39,0.00,40.00,6,3,10,0.01
2013-2-27,58,47,38,49,41,33,94,79,56,0.00,40.00,8,4,13,0.00
2013-2-28,59,50,40,52,46,39,99,89,70,0.00,40.00,9,3,16,0.00
2013-3-1,76,55,42,54,48,42,100,80,36,0.00,40.00,13,3,17,0.01
2013-3-2,68,56,50,51,48,44,97,76,46,0.00,40.00,10,5,15,0.00
2013-3-3,55,51,49,51,49,47,98,93,86,0.00,40.00,10,5,15,0.00
2013-3-4,55,49,43,48,46,41,96,88,78,0.00,40.00,10,4,14,0.00
2013-3-5,54,50,43,45,42,38,95,77,63,0.00,40.00,14,7,21,0.01
2013-3-6,55,50,43,49,44,40,95,80,63,0.00,40.00,15,7,25,0.26
2013-3-7,56,48,41,46,42,38,97,84,51,0.00,40.00,11,4,15,0.20
2013-3-8,55,49,44,48,44,42,97,86,76,0.00,40.00,24,8,34,0.02
2013-3-9,59,51,47,50,44,41,94,78,65,0.00,40.00,10,6,16,0.00
2013-3-10,55,48,38,49,45,38,98,90,75,0.00,40.00,9,4,13,0.01
2013-3-11,58,47,39,50,44,38,99,91,69,0.00,40.00,9,3,13,0.00
2013-3-12,56,48,44,52,47,44,100,96,83,0.00,40.00,9,3,12,0.00
2013-3-13,70,51,42,56,48,42,100,92,59,0.00,40.00,10,3,15,0.00
2013-3-14,57,50,43,52,48,43,100,93,77,0.00,40.00,8,3,12,0.00
2013-3-15,62,52,44,53,48,43,98,88,67,0.00,40.00,9,4,14,0.01
2013-3-16,61,52,47,54,49,46,98,90,78,0.00,40.00,11,6,20,0.00
2013-3-17,58,50,43,50,46,42,98,86,72,0.00,40.00,11,6,16,0.00
2013-3-18,57,49,41,50,46,41,99,89,71,0.00,40.00,9,4,15,0.00
2013-3-19,66,53,46,49,45,38,93,77,36,0.00,40.00,9,3,14,0.05
2013-3-20,63,55,51,54,50,41,97,82,49,0.00,40.00,7,3,10,0.00
2013-3-21,59,53,47,52,48,43,97,82,65,0.00,40.00,13,6,19,0.01
2013-3-22,63,50,40,48,42,39,96,78,48,0.00,40.00,9,4,13,0.00
2013-3-23,64,50,39,48,41,29,94,75,27,0.00,40.00,12,5,16,0.00
2013-3-24,57,48,39,50,44,38,98,86,69,0.00,40.00,10,5,15,0.00
2013-3-25,54,49,44,49,46,43,99,91,79,0.00,40.00,10,5,14,0.01
2013-3-26,58,51,45,49,46,42,92,84,68,0.00,40.00,10,6,17,0.00
2013-3-27,62,53,45,53,50,44,98,89,70,0.00,40.00,11,4,15,0.00
2013-3-28,61,56,52,55,53,50,97,91,77,0.00,40.00,12,5,18,0.00
2013-3-29,69,52,44,57,50,44,99,92,65,0.00,40.00,13,4,18,0.00
2013-3-30,63,55,51,53,50,-100,98,88,66,0.00,40.00,12,7,21,0.03
2013-3-31,66,57,51,53,52,49,98,84,54,0.00,40.00,17,7,24,0.01
2013-4-1,60,56,51,55,53,50,97,90,78,0.00,40.00,11,5,14,0.18
2013-4-2,60,54,49,54,51,48,99,92,75,0.00,40.00,13,5,16,0.00
2013-4-3,62,52,47,56,50,47,100,96,82,0.00,40.00,11,4,16,0.00
2013-4-4,62,54,49,58,52,48,99,95,86,0.00,40.00,10,4,15,0.13
2013-4-5,60,56,53,55,53,51,99,92,80,0.00,40.00,11,5,18,0.00
2013-4-6,62,55,50,56,52,48,97,90,72,0.00,40.00,11,5,18,0.00
2013-4-7,60,55,51,55,51,48,96,88,77,0.00,40.00,17,6,25,0.01
2013-4-8,64,54,48,51,39,-100,94,67,30,0.00,40.00,25,14,38,0.04
2013-4-9,72,56,43,49,41,31,93,64,26,0.00,40.00,14,7,23,0.00
2013-4-10,70,56,46,53,48,42,90,75,47,0.00,40.00,9,5,14,0.00
2013-4-11,62,53,48,52,49,45,97,86,66,0.00,40.00,12,6,19,0.00
2013-4-12,58,50,44,51,47,43,96,89,75,0.00,40.00,10,5,14,0.00
2013-4-13,62,53,46,51,47,43,97,83,66,0.00,40.00,10,5,16,0.01
2013-4-14,58,51,43,48,45,42,93,81,64,0.00,40.00,11,6,19,0.00
2013-4-15,54,50,47,49,43,36,97,78,60,0.00,40.00,29,14,35,0.00
2013-4-16,57,48,38,46,40,35,93,72,51,0.00,40.00,20,8,27,0.00
2013-4-17,65,52,42,44,33,-100,90,62,24,0.00,40.00,16,7,22,0.00
2013-4-18,63,51,40,49,43,37,92,75,51,0.00,40.00,11,4,14,0.00
2013-4-19,64,52,43,51,46,42,96,82,51,0.00,40.00,9,4,12,0.00
2013-4-20,63,54,47,53,49,45,99,84,64,0.00,40.00,9,5,13,0.00
2013-4-21,70,55,45,55,48,44,98,80,52,0.00,40.00,9,3,12,0.00
2013-4-22,61,52,47,52,49,44,98,89,69,0.00,40.00,11,4,15,0.00
2013-4-23,58,52,47,52,49,47,100,93,80,0.00,40.00,13,6,18,0.00
2013-4-24,59,53,48,51,49,47,97,88,75,0.00,40.00,15,7,22,0.00
2013-4-25,63,56,49,51,50,47,95,80,63,0.00,40.00,11,6,15,0.00
2013-4-26,60,52,44,52,48,43,99,89,74,0.00,40.00,11,5,15,0.00
2013-4-27,59,53,49,53,50,48,100,91,78,0.00,40.00,10,5,14,0.00
2013-4-28,59,51,47,52,49,47,100,93,76,0.00,40.00,8,4,10,0.00
2013-4-29,67,55,47,55,50,47,99,85,65,0.00,40.00,11,4,15,0.00
2013-4-30,64,55,48,52,49,46,95,82,63,0.00,40.00,10,5,14,0.00
2013-5-1,61,54,48,53,50,45,100,88,73,0.00,40.00,10,6,14,0.00
2013-5-2,84,61,50,54,50,36,93,70,18,0.00,40.00,9,3,13,0.00
2013-5-3,77,59,51,55,47,40,96,67,33,0.00,40.00,9,3,14,0.00
2013-5-4,57,52,47,53,50,40,99,90,73,0.00,40.00,19,7,29,0.00
2013-5-5,70,59,47,51,48,45,97,70,43,0.00,40.00,14,8,27,0.00
2013-5-6,64,60,56,53,51,48,82,72,61,0.00,40.00,9,6,19,0.00
2013-5-7,65,57,51,56,52,48,99,83,64,0.00,40.00,12,5,17,0.00
2013-5-8,60,54,50,53,51,50,100,91,77,0.00,40.00,11,5,17,0.00
2013-5-9,59,55,51,52,50,49,93,86,75,0.00,40.00,15,6,20,0.00
2013-5-10,61,54,49,54,49,-100,98,89,78,0.00,40.00,11,6,17,0.00
2013-5-11,61,53,49,58,51,-100,100,96,82,0.00,40.00,9,4,12,0.00
2013-5-12,68,56,49,58,53,49,100,90,67,0.00,40.00,10,4,16,0.00
2013-5-13,66,57,52,56,53,50,100,87,64,0.00,40.00,15,6,21,0.00
2013-5-14,60,56,53,53,51,50,96,86,72,0.00,40.00,12,9,17,0.00
2013-5-15,61,55,48,53,50,47,96,84,67,0.00,40.00,15,7,21,0.00
2013-5-16,65,53,49,56,37,-100,98,90,68,0.00,40.00,11,5,15,0.00
2013-5-17,61,54,50,53,48,-100,99,84,65,0.00,40.00,13,6,18,0.00
2013-5-18,65,55,45,52,49,44,97,81,61,0.00,40.00,11,5,15,0.00
2013-5-19,67,56,49,54,51,48,96,82,57,0.00,40.00,10,6,15,0.00
2013-5-20,68,57,45,56,49,-100,99,81,53,0.00,40.00,9,5,14,0.00
2013-5-21,63,56,51,53,49,41,98,78,61,0.00,40.00,20,9,28,0.00
2013-5-22,59,52,44,47,40,-100,93,73,54,0.00,40.00,21,9,27,0.00
2013-5-23,58,51,41,48,44,40,96,79,62,0.00,40.00,14,6,20,0.00
2013-5-24,58,52,42,50,46,41,98,83,71,0.00,40.00,14,7,19,0.00
2013-5-25,58,52,44,50,47,43,97,84,72,0.00,40.00,13,6,18,0.00
2013-5-26,63,54,47,54,51,47,99,89,70,0.00,40.00,13,6,19,0.00
2013-5-27,63,56,51,55,53,50,99,89,70,0.00,40.00,12,5,17,0.00
2013-5-28,64,58,53,58,55,50,100,88,74,0.00,40.00,11,6,15,0.00
2013-5-29,65,58,52,56,52,48,95,82,65,0.00,40.00,13,6,19,0.00
2013-5-30,64,56,48,52,49,46,97,80,57,0.00,40.00,12,6,11,0.00
2013-5-31,68,56,47,53,50,46,96,80,58,0.00,40.00,11,6,17,0.00
2013-6-1,66,57,48,55,50,47,96,80,61,0.00,40.00,10,5,17,0.00
2013-6-2,60,54,51,52,51,49,98,89,75,0.00,40.00,9,6,16,0.00
2013-6-3,60,55,52,54,52,50,99,89,72,0.00,40.00,15,7,23,0.00
2013-6-4,62,57,52,54,52,50,93,84,71,0.00,40.00,13,5,18,0.00
2013-6-5,60,55,51,53,52,50,98,88,74,0.00,40.00,9,4,14,0.00
2013-6-6,59,55,52,53,51,50,97,88,78,0.00,40.00,9,5,14,0.00
2013-6-7,60,54,51,54,52,51,99,94,79,0.00,40.00,9,3,12,0.00
2013-6-8,58,55,51,56,54,51,100,97,89,0.00,40.00,17,9,23,0.00
2013-6-9,60,57,55,57,55,54,100,93,84,0.00,40.00,16,8,21,0.01
2013-6-10,66,60,57,54,53,51,90,78,64,0.00,40.00,11,6,17,0.00
2013-6-11,64,59,54,55,54,51,94,85,72,0.00,40.00,11,5,15,0.00
2013-6-12,65,58,51,54,52,49,99,82,65,0.00,40.00,12,6,17,0.00
2013-6-13,65,56,49,54,51,48,96,83,64,0.00,40.00,11,6,16,0.00
2013-6-14,67,56,47,55,51,46,99,83,60,0.00,40.00,11,5,15,0.00
2013-6-15,57,54,51,52,51,50,98,90,78,0.00,40.00,9,6,14,0.00
2013-6-16,65,58,52,54,52,51,97,84,66,0.00,40.00,10,4,15,0.00
2013-6-17,70,59,51,57,54,49,97,82,64,0.00,40.00,11,5,16,0.00
2013-6-18,63,59,55,54,53,49,96,82,70,0.00,40.00,22,10,31,0.00
2013-6-19,65,57,50,54,51,48,97,79,60,0.00,40.00,12,6,16,0.00
2013-6-20,65,55,47,53,49,45,96,83,63,0.00,40.00,9,5,13,0.00
2013-6-22,64,60,51,55,54,51,99,80,67,0.00,40.00,13,8,17,0.00
2013-6-23,62,57,53,58,56,53,100,94,84,0.00,40.00,8,2,11,0.00
2013-6-24,59,57,55,59,57,55,100,100,98,0.00,40.00,7,3,12,0.04
2013-6-25,67,60,56,63,58,56,100,93,75,0.00,40.00,10,4,14,0.01
2013-6-26,73,64,59,64,60,58,100,90,70,0.00,40.00,8,4,12,0.00
2013-6-27,72,63,57,63,58,55,99,84,63,0.00,40.00,10,4,14,0.00
2013-6-28,70,62,54,59,56,53,97,84,68,0.00,40.00,8,4,12,0.00
2013-6-29,72,61,54,59,56,53,97,84,61,0.00,40.00,10,4,16,0.00
2013-6-30,69,61,54,59,56,53,100,85,68,0.00,40.00,10,4,14,0.00
2013-7-1,68,60,54,59,56,53,100,88,70,0.00,40.00,7,4,10,0.00
2013-7-2,68,59,54,59,56,54,100,91,71,0.00,40.00,9,4,13,0.00
2013-7-3,68,58,53,59,56,53,100,93,73,0.00,40.00,9,4,13,0.00
2013-7-4,66,58,53,58,56,53,100,91,75,0.00,40.00,10,5,13,0.00
2013-7-5,61,57,53,55,54,52,99,89,81,0.00,40.00,9,6,14,0.00
2013-7-6,63,56,53,53,52,52,93,88,72,0.00,40.00,10,6,14,0.00
2013-7-7,62,57,53,54,53,51,96,87,72,0.00,40.00,11,6,16,0.00
2013-7-8,62,56,53,55,51,-100,98,88,74,0.00,40.00,10,5,14,0.00
2013-7-9,63,53,47,57,52,47,100,96,79,0.00,40.00,9,3,13,0.00
2013-7-10,61,54,47,56,51,-100,100,91,82,0.00,40.00,9,6,13,0.00
2013-7-11,60,55,51,53,52,50,97,90,77,0.00,40.00,9,5,13,0.00
2013-7-12,61,55,51,54,52,50,96,88,76,0.00,40.00,10,5,15,0.00
2013-7-13,61,54,46,55,51,46,100,91,78,0.00,40.00,8,5,12,0.00
2013-7-14,61,53,47,54,51,47,100,92,78,0.00,40.00,9,5,14,0.00
2013-7-15,62,54,47,54,51,46,100,90,74,0.00,40.00,9,6,15,0.00
2013-7-16,64,56,50,56,53,50,99,88,68,0.00,40.00,10,6,14,0.02
2013-7-17,64,57,51,56,54,50,98,88,74,0.00,40.00,11,6,15,0.00
2013-7-18,60,52,47,55,50,47,100,94,82,0.00,40.00,9,5,14,0.00
2013-7-19,60,53,47,54,50,47,99,91,78,0.00,40.00,7,6,12,0.00
2013-7-20,55,51,46,51,47,-100,100,91,86,0.00,40.00,8,5,13,0.00
2013-7-22,62,58,49,57,54,49,99,88,81,0.00,40.00,9,5,14,0.00
2013-7-23,64,59,52,57,55,51,97,86,78,0.00,40.00,11,5,11,0.00
2013-7-24,59,56,51,55,54,50,98,90,87,0.00,40.00,9,7,11,0.00
2013-7-25,59,55,50,54,52,49,97,90,84,0.00,40.00,8,6,13,0.00
2013-7-26,59,55,47,54,39,-100,99,90,82,0.00,40.00,9,7,13,0.00
2013-7-27,60,56,51,54,46,-100,95,86,80,0.00,40.00,9,7,12,0.00
2013-7-28,57,54,51,52,51,48,91,88,83,0.00,40.00,9,6,13,0.00
2013-7-29,62,55,51,54,51,49,93,88,75,0.00,40.00,11,7,15,0.00
2013-7-30,62,56,54,54,52,50,89,85,74,0.00,40.00,11,6,15,0.00
2013-7-31,60,54,51,53,50,48,92,87,79,0.00,40.00,11,6,15,0.00
2013-8-1,66,58,49,56,52,47,96,82,65,0.00,40.00,13,7,18,0.00
2013-8-2,61,55,45,54,50,45,99,86,76,0.00,40.00,10,7,13,0.00
2013-8-3,61,55,48,53,51,47,95,87,76,0.00,40.00,9,7,13,0.00
2013-8-4,57,52,49,52,50,46,95,90,83,0.00,40.00,8,6,13,0.00
2013-8-5,60,54,48,53,50,47,96,89,78,0.00,40.00,9,6,13,0.00
2013-8-6,59,54,49,53,51,48,96,90,81,0.00,40.00,10,6,14,0.00
2013-8-7,63,58,52,55,53,51,95,84,72,0.00,40.00,10,7,15,0.00
2013-8-8,63,59,53,56,53,50,91,82,75,0.00,40.00,11,8,16,0.00
2013-8-14,68,65,56,58,57,54,94,76,70,0.00,40.00,11,8,17,0.00
2013-8-15,71,55,57,61,31,-100,95,70,72,0.00,40.00,9,8,14,0.00
2013-8-16,64,49,62,58,23,-100,94,74,80,0.00,40.00,11,7,16,0.00
2013-8-17,66,53,42,58,48,-100,100,87,74,0.00,40.00,11,6,16,0.00
2013-8-18,58,58,58,54,54,54,88,88,88,0.00,40.00,5,5,8,0.00
2013-8-19,63,50,56,56,31,-100,93,85,77,0.00,40.00,13,10,20,0.00
2013-8-20,59,55,54,55,48,-100,100,88,84,0.00,40.00,10,8,16,0.00
2013-8-21,65,58,52,56,53,50,93,84,70,0.00,40.00,9,5,14,0.00
2013-8-22,67,61,51,56,54,50,96,78,65,0.00,40.00,11,7,13,0.00
2013-8-23,64,57,51,56,53,50,96,87,74,0.00,40.00,11,6,16,0.00
2013-8-24,65,57,51,57,50,-100,97,83,76,0.00,40.00,10,6,14,0.00
2013-8-25,71,63,51,61,57,50,96,81,69,0.00,40.00,11,5,15,0.00
2013-8-26,69,63,56,58,56,50,85,78,68,0.00,40.00,10,6,15,0.00
2013-8-28,65,64,63,59,58,58,83,82,81,0.00,40.00,9,7,12,0.00
2013-8-29,68,63,55,60,58,54,95,85,76,0.00,40.00,9,6,12,0.00
2013-8-30,71,64,54,62,58,53,96,82,70,0.00,40.00,9,5,13,0.00
2013-8-31,70,61,53,59,50,-100,97,76,67,0.00,40.00,10,6,14,0.00
2013-9-1,68,63,58,59,58,55,93,83,73,0.00,40.00,9,6,12,0.00
2013-9-2,71,64,57,62,59,55,93,83,72,0.00,40.00,11,6,15,0.00
2013-9-3,72,65,50,61,58,50,99,77,61,0.00,40.00,10,6,14,0.00
2013-9-4,71,62,50,59,56,50,98,80,65,0.00,40.00,10,4,15,0.00
2013-9-5,72,63,50,59,56,49,98,78,62,0.00,40.00,9,5,12,0.00
2013-9-6,73,61,47,58,54,46,99,78,58,0.00,40.00,9,3,12,0.00
2013-9-7,71,58,53,59,50,-100,93,79,65,0.00,40.00,6,1,9,0.00
2013-9-10,62,58,56,57,55,54,94,88,81,0.00,40.00,12,8,16,0.00
2013-9-11,67,60,57,57,55,54,91,83,68,0.00,40.00,9,4,12,0.00
2013-9-12,67,59,51,59,55,50,96,87,74,0.00,40.00,10,5,15,0.00
2013-9-13,65,58,52,57,54,51,96,88,76,0.00,40.00,9,7,14,0.00
2013-9-14,71,59,49,58,51,-100,99,81,62,0.00,40.00,7,5,10,0.00
2013-9-15,68,60,48,58,55,48,100,83,68,0.00,40.00,9,5,13,0.00
2013-9-16,67,61,50,59,55,49,97,83,70,0.00,40.00,11,6,16,0.00
2013-9-17,67,61,53,57,54,50,94,80,64,0.00,40.00,18,9,26,0.00
2013-9-18,56,50,46,51,48,45,97,93,86,0.00,40.00,5,2,11,0.00
2013-9-19,70,55,42,56,49,42,99,83,49,0.00,40.00,8,3,12,0.00
2013-9-20,66,57,47,59,54,46,98,89,76,0.00,40.00,8,4,12,0.00
2013-9-21,67,59,53,57,52,-100,97,83,71,0.00,40.00,13,8,20,0.00
2013-9-22,65,57,46,55,52,45,100,84,69,0.00,40.00,10,4,11,0.00
2013-9-23,74,61,50,59,53,48,95,78,48,0.00,40.00,13,5,18,0.00
2013-9-24,70,64,51,58,54,50,97,72,60,0.00,40.00,19,11,27,0.00
2013-9-25,63,57,47,53,49,45,95,75,63,0.00,40.00,23,9,32,0.00
2013-9-26,65,52,41,50,46,41,99,82,45,0.00,40.00,11,4,15,0.00
2013-9-27,69,55,41,51,45,40,96,70,44,0.00,40.00,14,4,19,0.00
2013-9-28,74,58,50,52,42,-100,86,60,32,0.00,40.00,9,3,12,0.00
2013-9-29,70,60,46,59,53,45,96,79,59,0.00,40.00,10,5,14,0.00
2013-9-30,70,65,56,61,59,54,96,80,70,0.00,40.00,12,8,16,0.00
2013-10-1,63,56,50,54,51,46,92,84,71,0.00,40.00,9,4,13,0.00
2013-10-2,63,52,42,54,48,42,100,86,68,0.00,40.00,8,4,17,0.00
2013-10-3,68,54,42,52,47,41,99,78,47,0.00,40.00,11,4,14,0.00
2013-10-4,85,60,42,46,36,26,88,54,12,0.00,40.00,11,4,19,0.00
2013-10-5,87,67,58,38,32,23,43,30,10,0.00,40.00,9,2,17,0.00
2013-10-6,87,63,55,43,27,-100,68,36,13,0.00,40.00,8,2,10,0.00
2013-10-7,68,56,48,53,40,30,92,59,33,0.00,40.00,8,4,13,0.00
2013-10-8,59,51,46,52,48,46,100,90,76,0.00,40.00,11,5,16,0.00
2013-10-9,61,53,47,49,48,45,93,82,63,0.00,40.00,11,5,15,0.00
2013-10-10,58,51,45,51,47,44,98,88,77,0.00,40.00,13,4,18,0.00
2013-10-11,59,52,47,50,48,45,95,86,71,0.00,40.00,9,3,13,0.00
2013-10-12,54,47,42,49,43,-100,100,91,82,0.00,40.00,9,4,13,0.00
2013-10-13,59,50,42,52,47,42,100,89,77,0.00,40.00,8,4,12,0.00
2013-10-14,77,56,42,51,39,-100,96,69,26,0.00,40.00,13,3,18,0.00
2013-10-15,83,64,51,48,40,29,76,46,14,0.00,40.00,12,4,16,0.00
2013-10-16,76,63,55,47,39,34,51,42,25,0.00,40.00,11,3,15,0.00
2013-10-17,69,58,50,52,41,31,76,54,34,0.00,40.00,7,2,10,0.00
2013-10-18,66,52,43,49,42,37,83,71,42,0.00,40.00,6,1,8,0.00
2013-10-19,62,52,53,50,34,-100,77,64,64,0.00,40.00,7,4,10,0.00
2013-10-20,54,46,37,50,44,37,100,95,85,0.00,40.00,8,2,11,0.00
2013-10-21,54,46,38,49,45,38,100,96,85,0.00,40.00,8,2,12,0.00
2013-10-22,53,46,41,49,45,41,100,96,83,0.00,40.00,9,2,12,0.00
2013-10-23,54,46,41,50,44,41,100,96,83,0.00,40.00,8,2,13,0.00
2013-10-24,54,48,44,49,46,43,99,93,82,0.00,40.00,4,1,8,0.00
2013-10-25,60,52,42,52,48,42,100,87,73,0.00,40.00,8,3,11,0.00
2013-10-26,60,46,37,52,42,-100,100,93,76,0.00,40.00,9,2,13,0.00
2013-10-27,54,52,43,50,48,43,100,88,83,0.00,40.00,17,10,27,0.00
2013-10-28,57,54,52,51,47,-100,91,83,75,0.00,40.00,18,12,27,0.01
2013-10-29,60,53,46,52,48,44,96,86,70,0.00,40.00,10,3,16,0.00
2013-10-30,62,49,39,51,45,38,99,82,64,0.00,40.00,12,3,13,0.00
2013-10-31,73,53,43,51,45,40,96,78,30,0.00,40.00,11,2,15,0.01
2013-11-1,79,57,45,53,44,39,96,67,25,0.00,40.00,9,2,15,0.00
2013-11-2,60,49,41,52,44,-100,96,85,69,0.00,40.00,9,3,13,0.00
2013-11-3,62,50,39,49,44,39,100,82,53,0.00,40.00,9,2,13,0.01
2013-11-4,64,49,38,46,38,-100,93,73,28,0.00,40.00,8,2,14,0.00
2013-11-5,64,49,41,51,41,35,89,75,38,0.00,40.00,7,1,10,0.00
2013-11-6,79,54,45,47,36,27,75,54,15,0.00,40.00,6,0,11,0.00
2013-11-7,63,53,45,52,41,31,91,66,43,0.00,40.00,6,1,10,0.00
2013-11-8,64,50,42,53,45,39,93,84,51,0.00,40.00,8,1,10,0.00
2013-11-9,69,52,45,53,47,-100,96,85,33,0.00,40.00,13,3,18,0.01
2013-11-10,60,53,47,51,49,46,95,86,71,0.00,40.00,9,2,13,0.00
2013-11-11,67,54,46,52,48,43,96,83,42,0.00,40.00,6,2,10,0.00
2013-11-12,64,57,50,54,50,47,91,78,58,0.00,40.00,9,2,15,0.00
2013-11-13,69,53,47,54,49,45,97,88,53,0.00,40.00,8,2,13,0.00
2013-11-14,56,52,47,53,50,46,99,94,86,0.00,40.00,9,2,12,0.00
2013-11-15,58,52,47,50,48,46,97,87,70,0.00,40.00,8,3,15,0.00
2013-11-16,58,51,48,51,46,-100,96,84,61,0.00,40.00,11,3,10,0.00
2013-11-17,58,51,46,50,48,44,97,88,71,0.00,40.00,8,2,12,0.00
2013-11-18,57,50,43,49,46,42,97,86,69,0.00,40.00,9,2,12,0.00
2013-11-19,61,53,47,53,49,45,96,87,67,0.00,40.00,5,1,9,0.14
2013-11-20,63,56,54,56,54,53,98,95,76,0.00,40.00,9,3,13,0.19
2013-11-21,60,54,46,52,46,31,98,78,47,0.00,40.00,9,2,14,0.00
2013-11-22,63,51,45,36,26,-100,55,46,21,0.00,40.00,8,4,11,0.00
2013-11-23,63,51,45,52,39,-100,94,67,40,0.00,40.00,9,4,12,0.00
2013-11-24,65,51,43,45,42,40,96,75,41,0.00,40.00,8,2,10,0.00
2013-11-25,70,53,42,47,42,39,89,67,36,0.00,40.00,9,2,10,0.00
2013-11-26,73,57,48,49,42,38,76,59,28,0.00,40.00,9,2,14,0.00
2013-11-27,65,56,51,51,45,41,83,69,44,0.00,40.00,8,3,13,0.00
2013-12-2,61,52,44,52,46,39,98,81,59,0.00,40.00,10,2,15,0.00
2013-12-3,56,50,38,52,42,32,100,75,51,0.00,40.00,17,6,24,0.01
2013-12-4,53,41,31,34,30,23,97,69,32,0.00,40.00,9,2,12,0.01
2013-12-5,52,39,30,33,26,17,87,62,27,0.00,40.00,10,1,14,0.00
2013-12-6,53,43,31,38,29,21,75,59,38,0.00,40.00,10,4,17,0.05
2013-12-7,52,45,33,50,32,-100,94,64,38,0.00,40.00,19,9,29,0.14
2013-12-8,50,38,31,28,25,21,87,62,34,0.00,40.00,8,4,14,0.00
2013-12-9,55,42,33,24,22,19,65,46,27,0.00,40.00,10,7,17,0.00
2013-12-10,60,47,37,24,22,19,56,39,21,0.00,40.00,13,6,22,0.00
2013-12-11,66,52,44,39,26,21,56,37,18,0.00,40.00,13,4,20,0.00
2013-12-12,64,47,39,47,25,-100,98,67,22,0.00,40.00,8,2,11,0.00
2013-12-14,69,50,38,43,32,-100,86,57,25,0.00,40.00,12,3,22,0.00
2013-12-15,72,62,49,39,31,28,49,33,21,0.00,40.00,12,6,21,0.00
2013-12-16,77,68,56,30,26,24,36,22,14,0.00,40.00,14,8,21,0.00
2013-12-17,78,59,53,47,38,27,80,53,16,0.00,40.00,4,1,7,0.00
2013-12-18,53,51,48,51,48,44,96,88,73,0.00,40.00,11,4,16,0.00
2013-12-19,58,50,40,48,40,35,89,70,47,0.00,40.00,11,4,16,0.00
2013-12-20,57,43,34,40,31,19,88,66,23,0.00,40.00,7,1,11,0.00
2013-12-25,75,63,49,47,38,34,66,44,22,0.00,40.00,6,2,14,0.00
2013-12-26,79,65,51,39,34,28,50,34,16,0.00,40.00,7,3,12,0.00
2013-12-27,72,58,49,46,36,26,74,47,20,0.00,40.00,5,2,10,0.00
2013-12-28,68,51,43,45,36,-100,85,62,25,0.00,40.00,6,2,10,0.00
2013-12-29,72,53,42,36,29,21,77,45,16,0.00,40.00,8,3,16,0.00
2013-12-30,65,49,41,46,32,23,83,54,21,0.00,40.00,8,2,11,0.00
2013-12-31,60,47,38,50,39,28,99,77,29,0.00,40.00,7,2,12,0.00
2014-1-1,62,48,41,50,41,32,97,79,48,0.00,40.00,4,1,8,0.00
2014-1-2,73,53,44,49,37,25,79,57,17,0.00,40.00,8,1,15,0.00